Rafic Hariri International Airport (BEY/OLBA)





Airport Information
Location: Beirut,
Coordinates: 33.8209 / 35.4884
Field Elevation: 83ft
Longest Runway: 12,514ft
ILS Approaches: YES
Landing Fees: $1,214 per flight
Jet A Price: $0.23/lbs

Current Weather
METAR: OLBA 191100Z 23009KT 8000 NSC 28/20 Q1012 NOSIG
TAF: TAF OLBA 190400Z 1906/2012 22015KT 8000 FEW027 TEMPO 1918/2006 5000 BR

Recent Arrivals
Date Flight Type Depart
10/30/2019 CPX939 B738 Liège Airport (EBLG)
10/02/2019 CPX939 B738 Liège Airport (EBLG)
Recent Departures
Date Flight Type Arrive
10/30/2019 CPX938 B738 Liège Airport (EBLG)
10/03/2019 CPX938 B738 Liège Airport (EBLG)